Time;durP1;ratioP1;P1;durP2;ratioP2;P2;SDS_P1;SDS_P2;PMS_P1;PMS_P2;Temp;Humidity;BMP_temperature;BMP_pressure;BME280_temperature;BME280_humidity;BME280_pressure;Samples;Min_cycle;Max_cycle;Signal;HPM_P1;HPM_P2
2022/01/25 00:25:04;;;;;;;70.13;31.63;;;4.20;99.90;;;;;;5011355;28;20052;-62
2022/01/25 00:27:50;;;;;;;68.40;30.67;;;4.30;99.90;;;;;;5011901;28;20491;-62
2022/01/25 00:30:30;;;;;;;65.10;30.27;;;4.30;99.90;;;;;;5012167;28;20037;-63
2022/01/25 00:32:56;;;;;;;63.42;28.98;;;4.30;99.90;;;;;;5011900;28;20063;-62
2022/01/25 00:35:22;;;;;;;71.43;31.73;;;4.30;99.90;;;;;;5010611;28;20451;-62
2022/01/25 00:37:48;;;;;;;62.60;29.33;;;4.30;99.90;;;;;;5011458;28;20112;-62
2022/01/25 00:40:13;;;;;;;69.03;29.23;;;4.40;99.90;;;;;;5011779;28;20541;-62
2022/01/25 00:42:40;;;;;;;65.13;27.63;;;4.30;99.90;;;;;;4993988;28;20041;-61
2022/01/25 00:45:08;;;;;;;62.05;29.60;;;4.30;99.90;;;;;;5003063;28;20034;-62
2022/01/25 00:47:34;;;;;;;66.22;29.77;;;4.30;99.90;;;;;;5010428;28;20080;-62
2022/01/25 00:49:59;;;;;;;58.70;28.25;;;4.30;99.90;;;;;;5011521;28;20440;-62
2022/01/25 00:55:03;;;;;;;65.07;30.63;;;4.30;99.90;;;;;;5006612;28;20057;-62
2022/01/25 00:57:29;;;;;;;70.05;31.63;;;4.30;99.90;;;;;;5002782;28;20116;-63
2022/01/25 00:59:54;;;;;;;69.60;31.98;;;4.30;99.90;;;;;;5012801;28;20065;-62
2022/01/25 01:02:20;;;;;;;65.38;31.20;;;4.30;99.90;;;;;;5003536;28;20632;-62
2022/01/25 01:04:46;;;;;;;66.55;31.15;;;4.30;99.90;;;;;;4992544;28;20125;-62
2022/01/25 01:07:16;;;;;;;65.55;30.05;;;4.30;99.90;;;;;;5010626;28;20133;-62
2022/01/25 01:09:48;;;;;;;68.10;30.75;;;4.30;99.90;;;;;;5011843;28;20113;-62
2022/01/25 01:12:31;;;;;;;66.22;30.52;;;4.30;99.90;;;;;;5013031;28;20042;-62
2022/01/25 01:15:22;;;;;;;69.28;30.02;;;4.30;99.90;;;;;;5010024;28;20137;-62
2022/01/25 01:29:09;;;;;;;73.30;32.33;;;4.30;99.90;;;;;;5010181;28;20196;-62
2022/01/25 01:31:54;;;;;;;64.65;30.55;;;4.30;99.90;;;;;;5010167;28;20033;-62
2022/01/25 01:37:21;;;;;;;70.00;31.42;;;4.30;99.90;;;;;;5009585;28;20120;-62
2022/01/25 01:45:08;;;;;;;64.90;27.63;;;4.20;99.90;;;;;;5009941;28;20054;-62
2022/01/25 01:47:41;;;;;;;65.75;28.52;;;4.20;99.90;;;;;;5009472;28;20042;-62
2022/01/25 01:50:12;;;;;;;66.47;30.70;;;4.20;99.90;;;;;;5009796;28;20042;-62
2022/01/25 01:52:37;;;;;;;65.80;30.25;;;4.20;99.90;;;;;;5009860;28;20104;-62
2022/01/25 01:55:05;;;;;;;71.53;31.67;;;4.20;99.90;;;;;;4992806;28;20041;-62
2022/01/25 01:57:30;;;;;;;69.78;31.63;;;4.10;99.90;;;;;;5009505;28;20046;-62
2022/01/25 01:59:56;;;;;;;68.20;29.38;;;4.10;99.90;;;;;;5009571;28;20049;-62
2022/01/25 02:02:22;;;;;;;73.88;32.50;;;4.20;99.90;;;;;;5009866;28;20049;-62
2022/01/25 02:04:47;;;;;;;70.68;31.90;;;4.20;99.90;;;;;;4991741;28;20457;-62
2022/01/25 02:07:13;;;;;;;71.20;32.10;;;4.20;99.90;;;;;;5009274;28;20072;-62
2022/01/25 02:09:39;;;;;;;72.78;30.92;;;4.20;99.90;;;;;;5009781;28;20064;-62
2022/01/25 02:12:05;;;;;;;73.28;32.10;;;4.20;99.90;;;;;;5009724;28;20357;-62
2022/01/25 02:14:35;;;;;;;73.53;33.03;;;4.20;99.90;;;;;;5009505;28;20050;-62
2022/01/25 02:17:23;;;;;;;70.50;30.90;;;4.10;99.90;;;;;;4975452;28;20520;-62
2022/01/25 02:22:53;;;;;;;76.95;32.72;;;4.10;99.90;;;;;;5012600;28;20064;-63
2022/01/25 02:25:19;;;;;;;74.10;31.92;;;4.10;99.90;;;;;;5009347;28;20050;-62
2022/01/25 02:27:45;;;;;;;71.28;31.75;;;4.10;99.90;;;;;;5008996;28;20045;-62
2022/01/25 02:30:11;;;;;;;73.35;30.33;;;4.10;99.90;;;;;;5009764;28;20030;-63
2022/01/25 02:32:37;;;;;;;72.60;31.50;;;4.10;99.90;;;;;;5009323;28;20034;-62
2022/01/25 02:35:03;;;;;;;72.43;31.50;;;4.10;99.90;;;;;;5009555;28;20046;-63
2022/01/25 02:37:29;;;;;;;67.47;29.77;;;4.10;99.90;;;;;;4991337;28;20108;-62
2022/01/25 02:39:54;;;;;;;68.90;30.88;;;4.10;99.90;;;;;;5009493;28;20507;-63
2022/01/25 02:42:20;;;;;;;69.07;31.15;;;4.10;99.90;;;;;;5008937;28;20033;-62
2022/01/25 02:44:47;;;;;;;73.80;31.23;;;4.10;99.90;;;;;;5009513;28;20073;-62
2022/01/25 02:49:58;;;;;;;69.15;29.75;;;4.10;99.90;;;;;;5009484;28;20049;-62
2022/01/25 02:52:24;;;;;;;71.60;30.33;;;4.10;99.90;;;;;;4975206;28;20045;-62
2022/01/25 02:54:50;;;;;;;75.70;32.35;;;4.10;99.90;;;;;;5077088;22;20049;-62
2022/01/25 02:57:16;;;;;;;72.32;32.00;;;4.10;99.90;;;;;;5028687;28;20187;-62
2022/01/25 02:59:41;;;;;;;70.93;31.25;;;4.10;99.90;;;;;;5028962;28;20037;-62
2022/01/25 03:02:07;;;;;;;69.15;29.40;;;4.10;99.90;;;;;;5005062;28;20131;-62
2022/01/25 03:04:33;;;;;;;72.32;31.60;;;4.10;99.90;;;;;;5066385;22;20069;-62
2022/01/25 03:06:59;;;;;;;69.75;30.02;;;4.10;99.90;;;;;;5007417;28;20041;-63
2022/01/25 03:09:24;;;;;;;69.05;30.02;;;4.10;99.90;;;;;;5009052;28;20436;-62
2022/01/25 03:11:52;;;;;;;73.47;30.95;;;4.10;99.90;;;;;;5009855;28;20038;-62
2022/01/25 03:14:21;;;;;;;70.22;30.70;;;4.10;99.90;;;;;;4994578;28;20072;-62
2022/01/25 03:17:11;;;;;;;68.88;30.30;;;4.10;99.90;;;;;;5011126;28;20125;-63
2022/01/25 03:22:16;;;;;;;67.88;30.25;;;4.10;99.90;;;;;;5031810;28;20506;-62
2022/01/25 03:24:42;;;;;;;71.10;29.60;;;4.10;99.90;;;;;;5014119;28;20045;-63
2022/01/25 03:27:08;;;;;;;72.68;32.03;;;4.10;99.90;;;;;;5031776;28;20029;-63
2022/01/25 03:29:33;;;;;;;69.90;29.58;;;4.10;99.90;;;;;;5014445;28;20091;-62
2022/01/25 03:32:24;;;;;;;68.18;29.92;;;4.10;99.90;;;;;;5035586;28;20036;-63
2022/01/25 03:34:49;;;;;;;68.68;29.35;;;4.10;99.90;;;;;;5051244;28;20044;-63
2022/01/25 03:37:15;;;;;;;71.43;30.33;;;4.10;99.90;;;;;;5052000;28;20044;-63
2022/01/25 03:39:40;;;;;;;71.88;30.90;;;4.10;99.90;;;;;;5052132;28;20402;-63
2022/01/25 03:42:09;;;;;;;68.70;30.50;;;4.10;99.90;;;;;;5051645;28;20111;-63
2022/01/25 03:44:34;;;;;;;73.10;31.35;;;4.10;99.90;;;;;;5051453;28;20507;-62
2022/01/25 03:47:06;;;;;;;69.78;30.38;;;4.10;99.90;;;;;;5051387;28;20044;-63
2022/01/25 03:49:49;;;;;;;75.68;30.73;;;4.10;99.90;;;;;;5051980;28;20111;-63
2022/01/25 03:52:16;;;;;;;68.97;29.50;;;4.00;99.90;;;;;;5033839;28;20082;-63
2022/01/25 03:54:42;;;;;;;74.97;30.75;;;4.10;99.90;;;;;;5043976;28;20037;-63
2022/01/25 03:57:07;;;;;;;71.05;28.63;;;4.00;99.90;;;;;;5031021;28;20047;-63
2022/01/25 03:59:33;;;;;;;74.32;31.42;;;4.00;99.90;;;;;;5032497;28;20039;-63
2022/01/25 04:01:59;;;;;;;76.95;31.02;;;4.00;99.90;;;;;;5032396;28;20072;-62
2022/01/25 04:04:26;;;;;;;73.93;31.30;;;4.00;99.90;;;;;;5012727;28;20041;-63
2022/01/25 04:06:53;;;;;;;74.15;31.17;;;4.00;99.90;;;;;;5014300;28;20035;-62
2022/01/25 04:09:19;;;;;;;69.75;30.70;;;4.00;99.90;;;;;;5032381;28;20037;-63
2022/01/25 04:11:46;;;;;;;78.75;31.88;;;4.00;99.90;;;;;;5033580;28;20152;-63
2022/01/25 04:14:49;;;;;;;72.28;29.00;;;4.00;99.90;;;;;;5011984;28;20037;-62
2022/01/25 04:17:35;;;;;;;68.63;27.52;;;4.00;99.90;;;;;;4980405;28;20053;-62
2022/01/25 04:25:31;;;;;;;70.38;28.48;;;4.00;99.90;;;;;;5025120;28;20052;-62
2022/01/25 04:27:56;;;;;;;73.85;29.95;;;4.00;99.90;;;;;;5030508;28;20265;-63
2022/01/25 04:30:22;;;;;;;73.20;30.23;;;4.00;99.90;;;;;;5034097;28;20037;-63
2022/01/25 04:32:53;;;;;;;72.75;29.55;;;4.00;99.90;;;;;;4997251;28;20033;-62
2022/01/25 04:49:58;;;;;;;68.25;29.42;;;4.10;99.90;;;;;;5034527;28;20144;-62
2022/01/25 04:52:29;;;;;;;67.28;28.15;;;4.10;99.90;;;;;;5000049;28;20025;-63
2022/01/25 04:55:20;;;;;;;72.97;28.70;;;4.10;99.90;;;;;;5030819;28;20098;-63
2022/01/25 04:57:56;;;;;;;69.10;28.95;;;4.10;99.90;;;;;;5029347;28;20490;-63
2022/01/25 05:00:25;;;;;;;72.90;29.65;;;4.10;99.90;;;;;;5035665;28;20107;-63
2022/01/25 05:05:28;;;;;;;68.00;29.27;;;4.10;99.90;;;;;;5030177;28;20045;-62
2022/01/25 05:08:19;;;;;;;74.85;30.88;;;4.10;99.90;;;;;;5031414;28;20034;-63
2022/01/25 05:13:42;;;;;;;74.65;30.35;;;4.00;99.90;;;;;;5013593;28;20060;-63
2022/01/25 05:27:10;;;;;;;70.00;27.92;;;4.00;99.90;;;;;;5789620;23;20056;-62
2022/01/25 05:29:38;;;;;;;69.25;28.98;;;4.00;99.90;;;;;;4993318;28;20184;-62
2022/01/25 05:32:04;;;;;;;72.78;29.92;;;4.00;99.90;;;;;;5013493;28;20037;-63
2022/01/25 05:34:30;;;;;;;69.97;30.33;;;4.00;99.90;;;;;;5009100;28;20044;-62
2022/01/25 05:36:55;;;;;;;73.00;30.95;;;4.00;99.90;;;;;;5003131;28;20116;-62
2022/01/25 05:39:33;;;;;;;75.97;31.35;;;4.00;99.90;;;;;;5012197;28;20084;-63
2022/01/25 05:42:16;;;;;;;75.95;30.60;;;4.00;99.90;;;;;;5024546;23;20171;-64
2022/01/25 05:47:31;;;;;;;74.53;31.42;;;4.00;99.90;;;;;;5015149;28;20049;-65
2022/01/25 05:49:58;;;;;;;72.05;29.67;;;4.00;99.90;;;;;;5026778;28;20175;-65
2022/01/25 05:52:23;;;;;;;75.05;31.13;;;4.00;99.90;;;;;;5026933;28;20060;-65
2022/01/25 05:54:49;;;;;;;70.20;29.98;;;4.00;99.90;;;;;;5026490;28;20041;-65
2022/01/25 05:57:15;;;;;;;68.97;29.92;;;4.00;99.90;;;;;;5026182;28;20045;-65
2022/01/25 05:59:41;;;;;;;72.22;29.58;;;4.00;99.90;;;;;;5027170;28;20041;-65
2022/01/25 06:02:07;;;;;;;69.22;29.88;;;4.00;99.90;;;;;;5027033;28;20040;-64
2022/01/25 06:04:33;;;;;;;70.78;29.75;;;4.10;99.90;;;;;;5026501;28;20045;-65
2022/01/25 06:06:59;;;;;;;68.45;29.00;;;4.10;99.90;;;;;;5026612;28;20452;-63
2022/01/25 06:09:25;;;;;;;69.85;30.67;;;4.10;99.90;;;;;;5026902;28;20442;-66
2022/01/25 06:11:52;;;;;;;71.43;28.90;;;4.10;99.90;;;;;;5041996;28;20061;-67
2022/01/25 06:14:18;;;;;;;68.85;28.77;;;4.10;99.90;;;;;;5027384;28;20042;-67
2022/01/25 06:16:43;;;;;;;71.00;29.00;;;4.10;99.90;;;;;;5028818;28;20048;-65
2022/01/25 06:19:09;;;;;;;72.03;29.85;;;4.10;99.90;;;;;;5027038;28;20471;-66
2022/01/25 06:21:34;;;;;;;71.40;29.23;;;4.10;99.90;;;;;;5026953;28;20041;-67
2022/01/25 06:24:00;;;;;;;73.85;31.20;;;4.00;99.90;;;;;;5025607;28;20427;-66
2022/01/25 06:26:26;;;;;;;75.35;30.63;;;4.00;99.90;;;;;;5041557;28;20560;-66
2022/01/25 06:28:51;;;;;;;71.63;29.35;;;4.00;99.90;;;;;;5026886;28;20041;-66
2022/01/25 06:31:18;;;;;;;73.80;30.35;;;4.00;99.90;;;;;;5027731;28;20594;-65
2022/01/25 06:33:44;;;;;;;75.68;29.75;;;4.00;99.90;;;;;;5026075;28;20419;-66
2022/01/25 06:36:10;;;;;;;70.60;30.27;;;4.00;99.90;;;;;;5026292;28;20121;-64
2022/01/25 06:38:36;;;;;;;73.88;30.33;;;4.00;99.90;;;;;;5026498;28;20082;-64
2022/01/25 06:41:02;;;;;;;67.50;27.73;;;4.10;99.90;;;;;;5026589;28;20041;-65
2022/01/25 06:43:28;;;;;;;67.25;28.75;;;4.10;99.90;;;;;;5026104;28;20616;-64
2022/01/25 06:46:00;;;;;;;68.13;29.15;;;4.10;99.90;;;;;;5041722;28;20049;-64
2022/01/25 06:48:27;;;;;;;70.90;30.65;;;4.10;99.90;;;;;;5045422;28;20646;-65
2022/01/25 06:50:53;;;;;;;69.80;28.77;;;4.10;99.90;;;;;;5029317;28;20423;-63
2022/01/25 06:53:19;;;;;;;68.95;28.30;;;4.10;99.90;;;;;;5030220;28;20046;-62
2022/01/25 06:55:45;;;;;;;63.53;26.65;;;4.10;99.90;;;;;;5029861;28;20045;-65
2022/01/25 06:58:10;;;;;;;68.88;29.80;;;4.10;99.90;;;;;;5029935;28;20499;-65
2022/01/25 07:00:36;;;;;;;70.88;29.30;;;4.10;99.90;;;;;;5045588;28;20840;-63
2022/01/25 07:03:02;;;;;;;71.75;29.23;;;4.10;99.90;;;;;;5029992;28;20618;-64
2022/01/25 07:05:28;;;;;;;66.47;28.50;;;4.10;99.90;;;;;;5030179;28;20046;-65
2022/01/25 07:07:54;;;;;;;67.45;28.70;;;4.10;99.90;;;;;;5032215;28;20095;-65
2022/01/25 07:10:20;;;;;;;75.05;29.45;;;4.10;99.90;;;;;;5032277;28;20041;-64
2022/01/25 07:12:45;;;;;;;71.72;30.40;;;4.10;99.90;;;;;;5031236;28;20045;-65
2022/01/25 07:15:13;;;;;;;67.45;28.20;;;4.00;99.90;;;;;;5032010;28;20407;-65
2022/01/25 07:17:39;;;;;;;70.03;29.75;;;4.00;99.90;;;;;;5032199;28;20045;-65
2022/01/25 07:20:06;;;;;;;74.43;28.20;;;4.00;99.90;;;;;;5032637;28;20069;-65
2022/01/25 07:22:32;;;;;;;70.72;28.52;;;4.00;99.90;;;;;;5030907;28;20037;-65
2022/01/25 07:24:58;;;;;;;69.43;28.50;;;4.10;99.90;;;;;;5032107;28;20041;-65
2022/01/25 07:27:23;;;;;;;71.43;29.65;;;4.10;99.90;;;;;;5031689;28;20132;-65
2022/01/25 07:29:49;;;;;;;72.22;29.58;;;4.10;99.90;;;;;;5031996;28;20037;-66
2022/01/25 07:32:14;;;;;;;67.60;27.80;;;4.10;99.90;;;;;;5032558;28;20037;-66
2022/01/25 07:34:40;;;;;;;67.95;28.77;;;4.10;99.90;;;;;;5032042;28;20037;-65
2022/01/25 07:37:05;;;;;;;65.22;27.55;;;4.10;99.90;;;;;;5031514;28;20045;-64
2022/01/25 07:39:31;;;;;;;71.57;29.20;;;4.10;99.90;;;;;;5047318;28;20046;-63
2022/01/25 07:41:58;;;;;;;68.07;28.65;;;4.10;99.90;;;;;;5031899;28;20120;-63
2022/01/25 07:44:28;;;;;;;69.13;28.60;;;4.10;99.90;;;;;;5031571;28;20073;-64
2022/01/25 07:46:57;;;;;;;68.60;28.70;;;4.10;99.90;;;;;;5031548;28;20033;-63
2022/01/25 07:49:25;;;;;;;69.90;28.33;;;4.20;99.90;;;;;;5030807;28;20052;-64
2022/01/25 07:51:52;;;;;;;70.78;28.73;;;4.10;99.90;;;;;;5031889;28;20112;-64
2022/01/25 07:54:18;;;;;;;66.38;28.52;;;4.10;99.90;;;;;;5030514;28;20121;-64
2022/01/25 07:56:43;;;;;;;72.40;29.50;;;4.10;99.90;;;;;;5030838;28;20645;-63
2022/01/25 07:59:09;;;;;;;71.60;28.45;;;4.10;99.90;;;;;;5031306;28;20454;-63
2022/01/25 08:01:35;;;;;;;67.55;26.33;;;4.10;99.90;;;;;;5031826;28;20044;-64
2022/01/25 08:04:01;;;;;;;71.32;28.38;;;4.10;99.90;;;;;;5030296;28;20108;-63
2022/01/25 08:06:26;;;;;;;72.30;28.08;;;4.10;99.90;;;;;;5031094;28;20051;-63
2022/01/25 08:08:52;;;;;;;70.70;27.67;;;4.10;99.90;;;;;;5031345;28;20044;-63
2022/01/25 08:11:19;;;;;;;69.00;28.08;;;4.10;99.90;;;;;;5031478;28;20033;-63
2022/01/25 08:13:49;;;;;;;71.50;28.90;;;4.20;99.90;;;;;;5030896;28;20542;-63
2022/01/25 08:16:15;;;;;;;67.15;28.67;;;4.20;99.90;;;;;;5031052;28;20594;-63
2022/01/25 08:18:41;;;;;;;66.13;28.27;;;4.20;99.90;;;;;;5030818;28;20037;-63
2022/01/25 08:21:06;;;;;;;72.68;27.60;;;4.20;99.90;;;;;;5031248;28;20694;-63
2022/01/25 08:23:32;;;;;;;73.85;28.60;;;4.20;99.90;;;;;;5030437;28;20748;-63
2022/01/25 08:25:57;;;;;;;67.32;28.40;;;4.20;99.90;;;;;;5030540;28;20042;-62
2022/01/25 08:28:23;;;;;;;71.97;29.17;;;4.20;99.90;;;;;;5030585;28;20415;-63
2022/01/25 08:30:48;;;;;;;71.45;28.30;;;4.20;99.90;;;;;;5031174;28;20392;-63
2022/01/25 08:33:14;;;;;;;69.57;28.83;;;4.10;99.90;;;;;;5030770;28;20049;-63
2022/01/25 08:35:40;;;;;;;68.93;28.40;;;4.20;99.90;;;;;;5030570;28;20499;-63
2022/01/25 08:38:05;;;;;;;68.45;27.88;;;4.20;99.90;;;;;;5030529;28;20040;-63
2022/01/25 08:40:33;;;;;;;68.18;27.67;;;4.20;99.90;;;;;;5030484;28;20045;-63
2022/01/25 08:42:59;;;;;;;68.85;26.98;;;4.20;99.90;;;;;;5028818;28;20052;-63
2022/01/25 08:45:25;;;;;;;66.93;27.02;;;4.30;99.90;;;;;;5030423;28;20103;-63
2022/01/25 08:47:51;;;;;;;69.72;27.23;;;4.30;99.90;;;;;;5029851;28;20033;-63
2022/01/25 08:50:17;;;;;;;70.35;28.67;;;4.30;99.90;;;;;;5029454;28;20041;-61
2022/01/25 08:52:42;;;;;;;69.95;28.98;;;4.30;99.90;;;;;;5030273;28;20120;-62
2022/01/25 08:55:08;;;;;;;68.13;27.83;;;4.30;99.90;;;;;;5030008;28;20523;-63
2022/01/25 08:57:34;;;;;;;69.22;28.05;;;4.40;99.90;;;;;;5030306;28;20045;-63
2022/01/25 09:00:00;;;;;;;66.30;27.98;;;4.40;99.90;;;;;;5030574;28;20084;-63
2022/01/25 09:02:25;;;;;;;74.28;29.30;;;4.30;99.90;;;;;;5028669;28;20045;-64
2022/01/25 09:04:51;;;;;;;73.45;28.35;;;4.40;99.90;;;;;;5030014;28;20405;-64
2022/01/25 09:07:17;;;;;;;74.68;29.70;;;4.40;99.90;;;;;;5029625;28;20037;-64
2022/01/25 09:09:43;;;;;;;69.97;28.38;;;4.30;99.90;;;;;;5028566;28;20068;-63
2022/01/25 09:12:10;;;;;;;72.90;28.83;;;4.30;99.90;;;;;;5030215;28;20377;-63
2022/01/25 09:14:35;;;;;;;73.43;28.50;;;4.30;99.90;;;;;;5029699;28;20321;-63
2022/01/25 09:17:01;;;;;;;70.13;28.10;;;4.30;99.90;;;;;;5028680;28;20695;-63
2022/01/25 09:19:27;;;;;;;70.53;28.20;;;4.30;99.90;;;;;;5030197;28;20614;-64
2022/01/25 09:21:52;;;;;;;72.20;28.27;;;4.30;99.90;;;;;;5028713;28;20045;-64
2022/01/25 09:24:18;;;;;;;70.35;27.73;;;4.30;99.90;;;;;;5028350;28;20132;-64
2022/01/25 09:26:44;;;;;;;71.25;28.73;;;4.30;99.90;;;;;;5029502;28;20685;-64
2022/01/25 09:29:09;;;;;;;71.18;29.50;;;4.30;99.90;;;;;;5030151;28;20041;-64
2022/01/25 09:31:35;;;;;;;66.80;27.55;;;4.30;99.90;;;;;;5028588;28;20521;-63
2022/01/25 09:34:01;;;;;;;71.57;28.08;;;4.30;99.90;;;;;;5029536;28;20458;-63
2022/01/25 09:36:27;;;;;;;70.55;27.40;;;4.30;99.90;;;;;;5027679;28;20156;-64
2022/01/25 09:38:53;;;;;;;70.53;28.45;;;4.30;99.90;;;;;;5029507;28;20106;-63
2022/01/25 09:41:19;;;;;;;65.18;27.00;;;4.30;99.90;;;;;;5029873;28;20092;-63
2022/01/25 09:43:45;;;;;;;71.15;28.95;;;4.30;99.90;;;;;;5029071;28;20669;-63
2022/01/25 09:46:11;;;;;;;66.93;26.15;;;4.30;99.90;;;;;;5029004;28;20041;-64
2022/01/25 09:48:36;;;;;;;72.60;28.17;;;4.30;99.90;;;;;;5028220;28;20041;-63
2022/01/25 09:51:03;;;;;;;71.53;28.25;;;4.40;99.90;;;;;;5028678;28;20106;-63
2022/01/25 09:53:29;;;;;;;72.55;27.27;;;4.40;99.90;;;;;;5027594;28;20617;-63
2022/01/25 09:55:56;;;;;;;68.70;27.95;;;4.40;99.90;;;;;;5027930;28;20651;-63
2022/01/25 09:58:21;;;;;;;75.57;29.38;;;4.40;99.90;;;;;;5028243;28;20041;-63
2022/01/25 10:00:48;;;;;;;70.03;27.55;;;4.40;99.90;;;;;;5028652;28;20113;-62
2022/01/25 10:03:33;;;;;;;76.57;30.08;;;4.40;99.90;;;;;;5028174;28;20128;-63
2022/01/25 10:06:02;;;;;;;69.38;27.63;;;4.40;99.90;;;;;;5028383;28;20041;-63
2022/01/25 10:08:34;;;;;;;71.22;29.08;;;4.40;99.90;;;;;;5029102;28;20048;-63
2022/01/25 10:11:05;;;;;;;72.45;29.10;;;4.40;99.90;;;;;;5029541;28;20033;-64
2022/01/25 10:13:39;;;;;;;69.55;28.42;;;4.40;99.90;;;;;;5028998;28;20045;-63
2022/01/25 10:16:28;;;;;;;67.82;28.17;;;4.50;99.90;;;;;;5028847;28;20511;-64
2022/01/25 10:18:56;;;;;;;69.30;28.33;;;4.50;99.90;;;;;;5017660;28;20139;-64
2022/01/25 10:21:28;;;;;;;71.45;28.50;;;4.50;99.90;;;;;;5031662;28;20081;-63
2022/01/25 10:24:02;;;;;;;69.50;28.33;;;4.50;99.90;;;;;;5033279;28;20399;-64
2022/01/25 10:26:47;;;;;;;66.95;27.55;;;4.50;99.90;;;;;;5031451;28;20045;-64
2022/01/25 10:29:34;;;;;;;74.63;28.60;;;4.50;99.90;;;;;;5033164;28;20103;-64
2022/01/25 10:32:02;;;;;;;67.75;27.80;;;4.50;99.90;;;;;;5033486;28;20033;-64
2022/01/25 10:34:49;;;;;;;71.15;27.20;;;4.60;99.90;;;;;;5032909;28;20602;-64
2022/01/25 10:37:24;;;;;;;76.40;28.20;;;4.60;99.90;;;;;;5031156;28;20051;-64
2022/01/25 10:39:52;;;;;;;69.82;27.23;;;4.60;99.90;;;;;;5033415;28;20062;-64
2022/01/25 10:42:26;;;;;;;70.97;28.75;;;4.60;99.90;;;;;;5032936;28;20041;-64
2022/01/25 10:44:56;;;;;;;71.68;28.52;;;4.60;99.90;;;;;;5031586;28;20037;-63
2022/01/25 10:47:42;;;;;;;76.38;29.17;;;4.60;99.90;;;;;;5032179;28;20044;-64
2022/01/25 10:50:18;;;;;;;72.53;28.60;;;4.60;99.90;;;;;;5024511;28;20084;-64
2022/01/25 10:52:45;;;;;;;71.60;27.45;;;4.60;99.90;;;;;;5032593;28;20041;-64
2022/01/25 10:55:12;;;;;;;68.50;27.45;;;4.60;99.90;;;;;;5032019;28;20033;-64
2022/01/25 10:57:38;;;;;;;68.78;27.13;;;4.60;99.90;;;;;;5032055;28;20450;-64
2022/01/25 11:00:09;;;;;;;68.40;26.98;;;4.70;99.90;;;;;;5032791;28;20068;-64
2022/01/25 11:02:36;;;;;;;68.38;28.02;;;4.70;99.90;;;;;;5032723;28;20507;-64
2022/01/25 11:05:09;;;;;;;66.18;26.85;;;4.70;99.90;;;;;;5032525;28;20108;-63
2022/01/25 11:07:40;;;;;;;66.38;26.30;;;4.70;99.90;;;;;;5030796;28;20073;-64
2022/01/25 11:10:06;;;;;;;66.70;27.25;;;4.70;99.90;;;;;;5032468;28;20037;-63
2022/01/25 11:12:37;;;;;;;74.22;28.90;;;4.80;99.90;;;;;;5032285;28;20533;-64
2022/01/25 11:15:05;;;;;;;67.97;27.63;;;4.80;99.90;;;;;;5032283;28;20791;-64
2022/01/25 11:17:33;;;;;;;68.65;27.25;;;4.70;99.90;;;;;;5031790;28;20038;-64
2022/01/25 11:19:59;;;;;;;71.90;28.42;;;4.70;99.90;;;;;;5032553;28;20037;-64
2022/01/25 11:22:26;;;;;;;71.82;28.20;;;4.80;99.90;;;;;;5032179;28;20357;-64
2022/01/25 11:24:59;;;;;;;70.32;29.17;;;4.80;99.90;;;;;;5032234;28;20049;-64
2022/01/25 11:27:28;;;;;;;74.13;28.23;;;4.80;99.90;;;;;;5031310;28;20567;-64
2022/01/25 11:29:57;;;;;;;69.18;28.00;;;4.80;99.90;;;;;;5032346;28;20037;-64
2022/01/25 11:32:34;;;;;;;71.05;27.33;;;4.80;99.90;;;;;;5031152;28;20120;-64
2022/01/25 11:35:03;;;;;;;73.30;29.60;;;4.80;99.90;;;;;;5030223;28;20037;-64
2022/01/25 11:37:38;;;;;;;69.55;27.48;;;4.80;99.90;;;;;;5031017;28;20041;-64
2022/01/25 11:40:20;;;;;;;66.78;26.65;;;4.80;99.90;;;;;;5029062;28;20045;-64
2022/01/25 11:42:51;;;;;;;67.35;26.52;;;4.80;99.90;;;;;;5029864;28;20494;-64
2022/01/25 11:45:21;;;;;;;69.93;28.20;;;4.80;99.90;;;;;;5031235;28;20034;-64
2022/01/25 11:47:52;;;;;;;70.60;26.92;;;4.80;99.90;;;;;;5028655;28;20025;-64
2022/01/25 11:50:18;;;;;;;70.03;27.38;;;4.80;99.90;;;;;;5031069;28;20038;-64
2022/01/25 11:52:51;;;;;;;70.25;27.38;;;4.80;99.90;;;;;;5031201;28;20045;-64
2022/01/25 11:55:24;;;;;;;75.90;27.13;;;4.80;99.90;;;;;;5030940;28;20128;-63
2022/01/25 11:57:55;;;;;;;74.35;29.40;;;4.90;99.90;;;;;;5031177;28;20626;-64
2022/01/25 12:00:23;;;;;;;69.80;27.80;;;4.80;99.90;;;;;;5030243;28;20432;-64
2022/01/25 12:02:51;;;;;;;78.20;30.17;;;4.80;99.90;;;;;;5030118;28;20047;-64
2022/01/25 12:05:25;;;;;;;71.50;29.48;;;4.80;99.90;;;;;;5029668;28;20041;-64
2022/01/25 12:08:12;;;;;;;67.80;28.27;;;4.80;99.90;;;;;;5031281;28;20034;-64
2022/01/25 12:10:44;;;;;;;69.60;27.80;;;4.80;99.90;;;;;;5031534;28;20079;-63
2022/01/25 12:13:12;;;;;;;75.53;29.27;;;4.80;99.90;;;;;;5030705;28;20067;-64
2022/01/25 12:15:38;;;;;;;73.28;28.70;;;4.80;99.90;;;;;;5030834;28;20041;-64
2022/01/25 12:18:07;;;;;;;73.18;28.40;;;4.80;99.90;;;;;;5030983;28;20052;-63
2022/01/25 12:20:46;;;;;;;69.93;28.02;;;4.80;99.90;;;;;;5031449;28;20132;-64
2022/01/25 12:23:18;;;;;;;71.85;26.70;;;4.80;99.90;;;;;;5029580;28;20451;-64
2022/01/25 12:25:57;;;;;;;70.90;28.30;;;4.80;99.90;;;;;;5030434;28;20135;-64
2022/01/25 12:28:30;;;;;;;70.40;28.08;;;4.80;99.90;;;;;;5031110;28;20033;-64
2022/01/25 12:31:00;;;;;;;72.00;27.67;;;4.80;99.90;;;;;;5031249;28;20041;-64
2022/01/25 12:33:32;;;;;;;70.22;26.42;;;4.80;99.90;;;;;;5029549;28;20107;-63
2022/01/25 12:36:02;;;;;;;71.35;28.80;;;4.90;99.90;;;;;;5030477;28;20098;-64
2022/01/25 12:38:43;;;;;;;74.47;28.25;;;4.90;99.90;;;;;;5030976;28;20060;-64
2022/01/25 12:41:15;;;;;;;78.88;30.77;;;4.90;99.90;;;;;;5030941;28;20447;-64
2022/01/25 12:43:44;;;;;;;72.95;28.38;;;4.90;99.90;;;;;;5030206;28;20127;-63
2022/01/25 12:46:40;;;;;;;74.82;28.95;;;4.90;99.90;;;;;;5030253;28;20029;-64
2022/01/25 12:49:11;;;;;;;68.60;27.45;;;4.90;99.90;;;;;;5030451;28;20091;-64
2022/01/25 12:51:39;;;;;;;71.18;28.35;;;4.80;99.90;;;;;;5030862;28;20033;-64
2022/01/25 12:54:10;;;;;;;72.88;28.63;;;4.80;99.90;;;;;;5030453;28;20051;-64
2022/01/25 12:56:41;;;;;;;72.82;29.40;;;4.80;99.90;;;;;;5030062;28;20124;-63
2022/01/25 12:59:11;;;;;;;74.15;29.33;;;4.90;99.90;;;;;;5030012;28;20540;-63
2022/01/25 13:01:39;;;;;;;76.40;29.08;;;4.80;99.90;;;;;;5031021;28;20096;-63
2022/01/25 13:04:06;;;;;;;76.05;28.85;;;4.80;99.90;;;;;;5030243;28;20488;-63
2022/01/25 13:06:36;;;;;;;71.10;27.33;;;4.90;99.90;;;;;;5029878;28;20053;-63
2022/01/25 13:09:10;;;;;;;72.70;28.73;;;4.90;99.90;;;;;;5030080;28;20077;-63
2022/01/25 13:17:12;;;;;;;64.22;25.65;;;4.80;99.90;;;;;;5029697;28;20045;-63
2022/01/25 13:19:44;;;;;;;71.47;28.25;;;4.80;99.90;;;;;;5029888;28;20558;-63
2022/01/25 13:22:13;;;;;;;63.45;26.27;;;4.80;99.90;;;;;;5030227;28;20095;-63
2022/01/25 13:24:49;;;;;;;74.07;28.05;;;4.80;99.90;;;;;;5029646;28;20495;-63
2022/01/25 13:27:17;;;;;;;71.47;27.33;;;4.80;99.90;;;;;;5029612;28;20033;-63
2022/01/25 13:32:39;;;;;;;69.32;28.25;;;4.80;99.90;;;;;;5029896;28;20462;-63
2022/01/25 13:35:18;;;;;;;64.40;25.95;;;4.80;99.90;;;;;;5029811;28;20037;-63
2022/01/25 13:37:59;;;;;;;67.30;25.67;;;4.80;99.90;;;;;;5029356;28;20120;-63
2022/01/25 13:40:33;;;;;;;69.03;27.00;;;4.80;99.90;;;;;;5029815;28;20053;-63
2022/01/25 13:43:19;;;;;;;68.03;27.00;;;4.80;99.90;;;;;;5029374;28;20063;-63
2022/01/25 13:45:53;;;;;;;66.63;26.67;;;4.80;99.90;;;;;;5029185;28;20128;-63
2022/01/25 13:48:21;;;;;;;65.30;24.70;;;4.80;99.90;;;;;;5029309;28;20037;-63
2022/01/25 13:50:53;;;;;;;66.65;26.85;;;4.80;99.90;;;;;;5029808;28;20119;-63
2022/01/25 13:53:19;;;;;;;66.50;25.40;;;4.80;99.90;;;;;;5029161;28;20646;-63
2022/01/25 13:55:53;;;;;;;67.97;26.63;;;4.80;99.90;;;;;;5029016;28;20076;-63
2022/01/25 13:58:30;;;;;;;67.00;26.70;;;4.80;99.90;;;;;;5029144;28;20056;-63
2022/01/25 14:00:58;;;;;;;66.10;26.15;;;4.80;99.90;;;;;;5029619;28;20046;-63
2022/01/25 14:03:26;;;;;;;69.60;26.95;;;4.70;99.90;;;;;;5029007;28;20682;-63
2022/01/25 14:05:53;;;;;;;67.65;26.10;;;4.80;99.90;;;;;;5029405;28;20037;-63
2022/01/25 14:08:37;;;;;;;73.95;26.10;;;4.80;99.90;;;;;;5044242;28;20057;-63
2022/01/25 14:25:12;;;;;;;67.85;26.83;;;4.80;99.90;;;;;;5029170;28;20053;-63
2022/01/25 14:27:51;;;;;;;63.55;25.30;;;4.70;99.90;;;;;;5028850;28;20069;-63
2022/01/25 14:30:18;;;;;;;60.03;24.67;;;4.70;99.90;;;;;;5029153;28;20033;-63
2022/01/25 14:32:44;;;;;;;65.95;24.00;;;4.80;99.90;;;;;;5028737;28;20037;-63
2022/01/25 14:35:12;;;;;;;70.45;25.67;;;4.70;99.90;;;;;;5028906;28;20052;-63
2022/01/25 14:37:48;;;;;;;64.22;25.02;;;4.70;99.90;;;;;;5028713;28;20087;-63
2022/01/25 14:40:16;;;;;;;66.03;25.55;;;4.70;99.90;;;;;;5029190;28;20129;-63
2022/01/25 14:42:43;;;;;;;63.22;25.10;;;4.70;99.90;;;;;;5028638;28;20467;-63